HRHO2: North Canadian River

Data processed at Tue May 21 2019 23:50


All information presented herein is the property of the government of the United States of America and may be revised or deleted at any time without prior notice.
Dissemination of this information without the expressed written consent of the Public Affairs Office, Tulsa District U.S. Army Corps of Engineers is strictly prohibited.
These data are gathered electronically and, as presented, have not undergone any form of quality control. These data are not guaranteed to be valid or correct.
Go to home page.
Go to station list.
Go to home page.

Upstream stations:

Downstream station:
Previous Day
Next Day
Current Day
    
SHEF ID:       HRHO2     North Canadian River near Harrah
STATION TYPE:  
Regulating: Stage =    15.00, Flow =    10547

                STAGE  RIV-FLOW  WTR-TEMP   DIS-OXY        PH   CONDUCT  BAT-LOAD
                   ft       cfs         F      mg/l        su   umho/cm      volt
              Ccp-Rev   Ccp-Rev   Ccp-Rev   Ccp-Rev   Ccp-Rev   Ccp-Rev   Ccp-Rev
(US/Central)
05/21 00:00      8.07      2052     68.72     48.57      7.71       670     12.57
05/21 01:00      8.48      2432     68.11     49.82      7.70       617     12.49
05/21 02:00      8.87      2819     67.86     51.38      7.69       588     12.49
05/21 03:00      9.24      3205     67.41     53.60      7.66       541     12.49
05/21 04:00      9.50      3494     66.83     56.49      7.63       467     12.49
05/21 05:00     10.24      4360     66.52     53.84      7.65       424     12.49
05/21 06:00     12.22      6766     66.40     55.24      7.64       409     12.49
05/21 07:00     13.51      8459     66.27     58.44      7.59       418     12.49
05/21 08:00     14.55      9893     66.16     61.90      7.58       418     12.49
05/21 09:00     15.19     10829     66.25     68.29      7.52       435     12.49
05/21 10:00     15.92     11933     66.04     73.55      7.55       398     12.57
05/21 11:00     16.60     13004     65.86     77.34      7.57       366     12.57
05/21 12:00     17.21     14048     65.77     77.85      7.61       331     12.81
05/21 13:00     17.59     14770     65.95     77.25      7.64       303     13.53
05/21 14:00     17.92     15403     66.11     77.83      7.69       285      ----
05/21 15:00     18.13     15811     66.25     78.45      7.72       267     13.37
05/21 16:00     18.18     15909     66.40     79.46      7.76       248     13.21
05/21 17:00     18.25     16047     66.51     80.25      7.78       240     13.13
05/21 18:00     18.28     16106     66.52     80.30      7.80       237     13.05
05/21 19:00     18.32     16185     66.49     80.20      7.80       235     13.05
05/21 20:00     18.26     16067     66.42     80.80      7.80       236     12.97
05/21 21:00     18.25     16047     66.31     81.40      7.79       239     12.73
05/21 22:00     18.10     15753     66.20     81.89      7.78       243     12.65
05/21 23:00     18.18     15909     66.13     81.87      7.77       247     12.65